sensor_id;sensor_type;location;lat;lon;timestamp;temperature;humidity
4399;DHT22;2213;49.720;7.296;2023-02-28T00:00:47;0.00;98.20
4399;DHT22;2213;49.720;7.296;2023-02-28T00:03:19;-0.10;98.60
4399;DHT22;2213;49.720;7.296;2023-02-28T00:05:49;-0.10;98.50
4399;DHT22;2213;49.720;7.296;2023-02-28T00:08:20;0.00;98.40
4399;DHT22;2213;49.720;7.296;2023-02-28T00:10:50;-0.10;99.20
4399;DHT22;2213;49.720;7.296;2023-02-28T00:13:20;-0.10;98.90
4399;DHT22;2213;49.720;7.296;2023-02-28T00:15:59;-0.10;99.20
4399;DHT22;2213;49.720;7.296;2023-02-28T00:18:31;-0.10;99.10
4399;DHT22;2213;49.720;7.296;2023-02-28T00:21:00;-0.10;99.90
4399;DHT22;2213;49.720;7.296;2023-02-28T00:23:30;-0.10;99.90
4399;DHT22;2213;49.720;7.296;2023-02-28T00:26:01;-0.20;99.50
4399;DHT22;2213;49.720;7.296;2023-02-28T00:28:30;-0.20;99.70
4399;DHT22;2213;49.720;7.296;2023-02-28T00:31:01;-0.20;99.70
4399;DHT22;2213;49.720;7.296;2023-02-28T00:33:32;-0.30;99.50
4399;DHT22;2213;49.720;7.296;2023-02-28T00:36:03;-0.30;99.70
4399;DHT22;2213;49.720;7.296;2023-02-28T00:38:34;-0.30;99.60
4399;DHT22;2213;49.720;7.296;2023-02-28T00:41:05;-0.30;99.60
4399;DHT22;2213;49.720;7.296;2023-02-28T00:43:36;-0.30;99.90
4399;DHT22;2213;49.720;7.296;2023-02-28T00:46:07;-0.40;99.90
4399;DHT22;2213;49.720;7.296;2023-02-28T00:48:38;-0.30;99.80
4399;DHT22;2213;49.720;7.296;2023-02-28T00:51:08;-0.40;99.80
4399;DHT22;2213;49.720;7.296;2023-02-28T00:53:39;-0.40;99.90
4399;DHT22;2213;49.720;7.296;2023-02-28T00:56:08;-0.40;99.90
4399;DHT22;2213;49.720;7.296;2023-02-28T00:58:39;-0.30;99.90
4399;DHT22;2213;49.720;7.296;2023-02-28T01:01:09;-0.30;99.90
4399;DHT22;2213;49.720;7.296;2023-02-28T01:03:41;-0.40;99.90
4399;DHT22;2213;49.720;7.296;2023-02-28T01:06:10;-0.40;99.90
4399;DHT22;2213;49.720;7.296;2023-02-28T01:08:40;-0.40;99.90
4399;DHT22;2213;49.720;7.296;2023-02-28T01:11:11;-0.40;99.90
4399;DHT22;2213;49.720;7.296;2023-02-28T01:13:42;-0.50;99.90
4399;DHT22;2213;49.720;7.296;2023-02-28T01:16:13;-0.40;99.90
4399;DHT22;2213;49.720;7.296;2023-02-28T01:18:44;-0.40;99.90
4399;DHT22;2213;49.720;7.296;2023-02-28T01:21:15;-0.50;99.90
4399;DHT22;2213;49.720;7.296;2023-02-28T01:23:47;-0.50;99.90
4399;DHT22;2213;49.720;7.296;2023-02-28T01:26:19;-0.50;99.90
4399;DHT22;2213;49.720;7.296;2023-02-28T01:28:52;-0.50;99.90
4399;DHT22;2213;49.720;7.296;2023-02-28T01:31:22;-0.50;99.90
4399;DHT22;2213;49.720;7.296;2023-02-28T01:33:53;-0.60;99.90
4399;DHT22;2213;49.720;7.296;2023-02-28T01:36:24;-0.50;99.90
4399;DHT22;2213;49.720;7.296;2023-02-28T01:38:54;-0.60;99.90
4399;DHT22;2213;49.720;7.296;2023-02-28T01:41:26;-0.60;99.90
4399;DHT22;2213;49.720;7.296;2023-02-28T01:44:00;-0.60;99.90
4399;DHT22;2213;49.720;7.296;2023-02-28T01:46:33;-0.60;99.90
4399;DHT22;2213;49.720;7.296;2023-02-28T01:49:08;-0.50;99.90
4399;DHT22;2213;49.720;7.296;2023-02-28T01:51:44;-0.60;99.90
4399;DHT22;2213;49.720;7.296;2023-02-28T01:54:22;-0.60;99.90
4399;DHT22;2213;49.720;7.296;2023-02-28T01:56:58;-0.70;99.90
4399;DHT22;2213;49.720;7.296;2023-02-28T01:59:37;-0.70;99.90
4399;DHT22;2213;49.720;7.296;2023-02-28T02:02:14;-0.70;99.90
4399;DHT22;2213;49.720;7.296;2023-02-28T02:04:50;-0.70;99.90
4399;DHT22;2213;49.720;7.296;2023-02-28T02:07:23;-0.80;99.90
4399;DHT22;2213;49.720;7.296;2023-02-28T02:10:00;-0.90;99.90
4399;DHT22;2213;49.720;7.296;2023-02-28T02:12:44;-0.70;99.90
4399;DHT22;2213;49.720;7.296;2023-02-28T02:15:38;-0.80;99.90
4399;DHT22;2213;49.720;7.296;2023-02-28T02:18:20;-0.90;99.90
4399;DHT22;2213;49.720;7.296;2023-02-28T02:21:24;-0.90;99.90
4399;DHT22;2213;49.720;7.296;2023-02-28T02:28:15;-0.90;99.90
4399;DHT22;2213;49.720;7.296;2023-02-28T02:34:53;-1.00;99.90
4399;DHT22;2213;49.720;7.296;2023-02-28T02:37:37;-1.10;99.90
4399;DHT22;2213;49.720;7.296;2023-02-28T02:40:15;-1.20;99.90
4399;DHT22;2213;49.720;7.296;2023-02-28T02:42:51;-1.30;99.90
4399;DHT22;2213;49.720;7.296;2023-02-28T02:45:25;-1.30;99.90
4399;DHT22;2213;49.720;7.296;2023-02-28T02:48:07;-1.30;99.90
4399;DHT22;2213;49.720;7.296;2023-02-28T02:50:45;-1.20;99.90
4399;DHT22;2213;49.720;7.296;2023-02-28T02:53:21;-1.20;99.90
4399;DHT22;2213;49.720;7.296;2023-02-28T02:55:56;-1.20;99.90
4399;DHT22;2213;49.720;7.296;2023-02-28T02:58:33;-1.20;99.90
4399;DHT22;2213;49.720;7.296;2023-02-28T03:01:12;-1.30;99.90
4399;DHT22;2213;49.720;7.296;2023-02-28T03:03:45;-1.40;99.90
4399;DHT22;2213;49.720;7.296;2023-02-28T03:06:16;-1.40;99.90
4399;DHT22;2213;49.720;7.296;2023-02-28T03:08:47;-1.40;99.90
4399;DHT22;2213;49.720;7.296;2023-02-28T03:11:17;-1.30;99.90
4399;DHT22;2213;49.720;7.296;2023-02-28T03:17:13;-1.50;99.90
4399;DHT22;2213;49.720;7.296;2023-02-28T03:20:07;-1.50;99.90
4399;DHT22;2213;49.720;7.296;2023-02-28T03:22:52;-1.40;99.90
4399;DHT22;2213;49.720;7.296;2023-02-28T03:25:37;-1.60;99.90
4399;DHT22;2213;49.720;7.296;2023-02-28T03:28:17;-1.70;99.90
4399;DHT22;2213;49.720;7.296;2023-02-28T03:31:00;-1.70;99.90
4399;DHT22;2213;49.720;7.296;2023-02-28T03:33:40;-1.70;99.90
4399;DHT22;2213;49.720;7.296;2023-02-28T03:36:17;-1.60;99.90
4399;DHT22;2213;49.720;7.296;2023-02-28T03:38:54;-1.60;99.90
4399;DHT22;2213;49.720;7.296;2023-02-28T03:41:35;-1.80;99.90
4399;DHT22;2213;49.720;7.296;2023-02-28T03:44:11;-1.80;99.90
4399;DHT22;2213;49.720;7.296;2023-02-28T03:46:49;-1.80;99.90
4399;DHT22;2213;49.720;7.296;2023-02-28T03:49:23;-1.80;99.90
4399;DHT22;2213;49.720;7.296;2023-02-28T03:51:56;-1.70;99.90
4399;DHT22;2213;49.720;7.296;2023-02-28T03:54:32;-1.80;99.90
4399;DHT22;2213;49.720;7.296;2023-02-28T03:57:10;-1.70;99.90
4399;DHT22;2213;49.720;7.296;2023-02-28T03:59:47;-1.80;99.90
4399;DHT22;2213;49.720;7.296;2023-02-28T04:02:21;-1.80;99.90
4399;DHT22;2213;49.720;7.296;2023-02-28T04:04:50;-1.80;99.90
4399;DHT22;2213;49.720;7.296;2023-02-28T04:07:21;-1.90;99.90
4399;DHT22;2213;49.720;7.296;2023-02-28T04:09:53;-1.90;99.90
4399;DHT22;2213;49.720;7.296;2023-02-28T04:12:23;-2.00;99.90
4399;DHT22;2213;49.720;7.296;2023-02-28T04:14:52;-2.00;99.90
4399;DHT22;2213;49.720;7.296;2023-02-28T04:17:21;-2.00;99.90
4399;DHT22;2213;49.720;7.296;2023-02-28T04:19:50;-2.00;99.90
4399;DHT22;2213;49.720;7.296;2023-02-28T04:22:19;-1.90;99.90
4399;DHT22;2213;49.720;7.296;2023-02-28T04:24:49;-2.00;99.90
4399;DHT22;2213;49.720;7.296;2023-02-28T04:27:24;-1.90;99.90
4399;DHT22;2213;49.720;7.296;2023-02-28T04:29:55;-1.90;99.90
4399;DHT22;2213;49.720;7.296;2023-02-28T04:32:25;-1.90;99.90
4399;DHT22;2213;49.720;7.296;2023-02-28T04:34:55;-2.00;99.90
4399;DHT22;2213;49.720;7.296;2023-02-28T04:37:24;-2.00;99.90
4399;DHT22;2213;49.720;7.296;2023-02-28T04:39:57;-2.00;99.90
4399;DHT22;2213;49.720;7.296;2023-02-28T04:42:27;-2.00;99.90
4399;DHT22;2213;49.720;7.296;2023-02-28T04:45:03;-2.00;99.90
4399;DHT22;2213;49.720;7.296;2023-02-28T04:47:34;-2.00;99.90
4399;DHT22;2213;49.720;7.296;2023-02-28T04:50:04;-2.00;99.90
4399;DHT22;2213;49.720;7.296;2023-02-28T04:52:34;-2.10;99.90
4399;DHT22;2213;49.720;7.296;2023-02-28T04:55:04;-2.10;99.90
4399;DHT22;2213;49.720;7.296;2023-02-28T04:57:37;-2.00;99.90
4399;DHT22;2213;49.720;7.296;2023-02-28T05:00:08;-2.10;99.90
4399;DHT22;2213;49.720;7.296;2023-02-28T05:02:39;-2.20;99.90
4399;DHT22;2213;49.720;7.296;2023-02-28T05:05:09;-2.30;99.90
4399;DHT22;2213;49.720;7.296;2023-02-28T05:07:40;-2.20;99.90
4399;DHT22;2213;49.720;7.296;2023-02-28T05:10:10;-2.30;99.90
4399;DHT22;2213;49.720;7.296;2023-02-28T05:12:41;-2.20;99.90
4399;DHT22;2213;49.720;7.296;2023-02-28T05:15:12;-2.10;99.90
4399;DHT22;2213;49.720;7.296;2023-02-28T05:17:42;-2.20;99.90
4399;DHT22;2213;49.720;7.296;2023-02-28T05:20:13;-2.20;99.90
4399;DHT22;2213;49.720;7.296;2023-02-28T05:22:43;-2.20;99.90
4399;DHT22;2213;49.720;7.296;2023-02-28T05:25:17;-2.30;99.90
4399;DHT22;2213;49.720;7.296;2023-02-28T05:27:50;-2.30;99.90
4399;DHT22;2213;49.720;7.296;2023-02-28T05:30:21;-2.30;99.90
4399;DHT22;2213;49.720;7.296;2023-02-28T05:32:51;-2.40;99.90
4399;DHT22;2213;49.720;7.296;2023-02-28T05:35:20;-2.40;99.90
4399;DHT22;2213;49.720;7.296;2023-02-28T05:37:50;-2.30;99.90
4399;DHT22;2213;49.720;7.296;2023-02-28T05:40:22;-2.30;99.90
4399;DHT22;2213;49.720;7.296;2023-02-28T05:42:52;-2.40;99.90
4399;DHT22;2213;49.720;7.296;2023-02-28T05:45:22;-2.40;99.90
4399;DHT22;2213;49.720;7.296;2023-02-28T05:47:53;-2.50;99.90
4399;DHT22;2213;49.720;7.296;2023-02-28T05:50:23;-2.50;99.90
4399;DHT22;2213;49.720;7.296;2023-02-28T05:52:53;-2.60;99.90
4399;DHT22;2213;49.720;7.296;2023-02-28T05:55:22;-2.50;99.90
4399;DHT22;2213;49.720;7.296;2023-02-28T05:57:55;-2.50;99.90
4399;DHT22;2213;49.720;7.296;2023-02-28T06:00:24;-2.50;99.90
4399;DHT22;2213;49.720;7.296;2023-02-28T06:02:54;-2.50;99.90
4399;DHT22;2213;49.720;7.296;2023-02-28T06:05:28;-2.60;99.90
4399;DHT22;2213;49.720;7.296;2023-02-28T06:07:58;-2.60;99.90
4399;DHT22;2213;49.720;7.296;2023-02-28T06:10:27;-2.70;99.90
4399;DHT22;2213;49.720;7.296;2023-02-28T06:13:01;-2.60;99.90
4399;DHT22;2213;49.720;7.296;2023-02-28T06:15:32;-2.60;99.90
4399;DHT22;2213;49.720;7.296;2023-02-28T06:18:03;-2.50;99.90
4399;DHT22;2213;49.720;7.296;2023-02-28T06:20:32;-2.50;99.90
4399;DHT22;2213;49.720;7.296;2023-02-28T06:23:02;-2.40;99.90
4399;DHT22;2213;49.720;7.296;2023-02-28T06:25:31;-2.40;99.90
4399;DHT22;2213;49.720;7.296;2023-02-28T06:28:03;-2.30;99.90
4399;DHT22;2213;49.720;7.296;2023-02-28T06:30:33;-2.30;99.90
4399;DHT22;2213;49.720;7.296;2023-02-28T06:33:03;-2.20;99.90
4399;DHT22;2213;49.720;7.296;2023-02-28T06:35:32;-2.30;99.90
4399;DHT22;2213;49.720;7.296;2023-02-28T06:38:02;-2.30;99.90
4399;DHT22;2213;49.720;7.296;2023-02-28T06:40:33;-2.30;99.90
4399;DHT22;2213;49.720;7.296;2023-02-28T06:43:05;-2.30;99.90
4399;DHT22;2213;49.720;7.296;2023-02-28T06:45:35;-2.20;99.90
4399;DHT22;2213;49.720;7.296;2023-02-28T06:48:06;-2.30;99.90
4399;DHT22;2213;49.720;7.296;2023-02-28T06:50:35;-2.30;99.90
4399;DHT22;2213;49.720;7.296;2023-02-28T06:53:05;-2.20;99.90
4399;DHT22;2213;49.720;7.296;2023-02-28T06:55:37;-2.20;99.90
4399;DHT22;2213;49.720;7.296;2023-02-28T06:58:08;-2.20;99.90
4399;DHT22;2213;49.720;7.296;2023-02-28T07:00:42;-2.20;99.90
4399;DHT22;2213;49.720;7.296;2023-02-28T07:03:13;-2.20;99.90
4399;DHT22;2213;49.720;7.296;2023-02-28T07:05:44;-2.10;99.90
4399;DHT22;2213;49.720;7.296;2023-02-28T07:08:14;-2.10;99.90
4399;DHT22;2213;49.720;7.296;2023-02-28T07:10:44;-2.20;99.90
4399;DHT22;2213;49.720;7.296;2023-02-28T07:13:15;-2.10;99.90
4399;DHT22;2213;49.720;7.296;2023-02-28T07:15:53;-2.10;99.90
4399;DHT22;2213;49.720;7.296;2023-02-28T07:18:23;-2.10;99.90
4399;DHT22;2213;49.720;7.296;2023-02-28T07:20:53;-2.10;99.90
4399;DHT22;2213;49.720;7.296;2023-02-28T07:23:24;-2.10;99.90
4399;DHT22;2213;49.720;7.296;2023-02-28T07:25:54;-2.00;99.90
4399;DHT22;2213;49.720;7.296;2023-02-28T07:28:25;-2.00;99.90
4399;DHT22;2213;49.720;7.296;2023-02-28T07:30:56;-2.10;99.90
4399;DHT22;2213;49.720;7.296;2023-02-28T07:33:25;-2.10;99.90
4399;DHT22;2213;49.720;7.296;2023-02-28T07:36:00;-2.10;99.90
4399;DHT22;2213;49.720;7.296;2023-02-28T07:38:33;-2.00;99.90
4399;DHT22;2213;49.720;7.296;2023-02-28T07:41:04;-2.10;99.90
4399;DHT22;2213;49.720;7.296;2023-02-28T07:43:35;-2.10;99.90
4399;DHT22;2213;49.720;7.296;2023-02-28T07:46:06;-2.00;99.90
4399;DHT22;2213;49.720;7.296;2023-02-28T07:48:37;-2.00;99.90
4399;DHT22;2213;49.720;7.296;2023-02-28T07:51:07;-1.90;99.90
4399;DHT22;2213;49.720;7.296;2023-02-28T07:53:36;-1.90;99.90
4399;DHT22;2213;49.720;7.296;2023-02-28T07:56:08;-1.90;99.90
4399;DHT22;2213;49.720;7.296;2023-02-28T07:58:40;-1.90;99.90
4399;DHT22;2213;49.720;7.296;2023-02-28T08:01:11;-1.90;99.90
4399;DHT22;2213;49.720;7.296;2023-02-28T08:03:40;-1.80;99.90
4399;DHT22;2213;49.720;7.296;2023-02-28T08:06:17;-1.80;99.90
4399;DHT22;2213;49.720;7.296;2023-02-28T08:08:48;-1.70;99.90
4399;DHT22;2213;49.720;7.296;2023-02-28T08:11:18;-1.70;99.90
4399;DHT22;2213;49.720;7.296;2023-02-28T08:13:49;-1.60;99.90
4399;DHT22;2213;49.720;7.296;2023-02-28T08:16:18;-1.50;99.90
4399;DHT22;2213;49.720;7.296;2023-02-28T08:18:50;-1.50;99.90
4399;DHT22;2213;49.720;7.296;2023-02-28T08:21:20;-1.30;99.90
4399;DHT22;2213;49.720;7.296;2023-02-28T08:23:50;-1.30;99.90
4399;DHT22;2213;49.720;7.296;2023-02-28T08:26:20;-1.30;99.90
4399;DHT22;2213;49.720;7.296;2023-02-28T08:28:51;-1.10;99.90
4399;DHT22;2213;49.720;7.296;2023-02-28T08:31:23;-1.00;99.90
4399;DHT22;2213;49.720;7.296;2023-02-28T08:33:53;-0.90;99.90
4399;DHT22;2213;49.720;7.296;2023-02-28T08:36:26;-0.80;99.90
4399;DHT22;2213;49.720;7.296;2023-02-28T08:38:58;-0.70;99.90
4399;DHT22;2213;49.720;7.296;2023-02-28T08:41:27;-0.60;99.90
4399;DHT22;2213;49.720;7.296;2023-02-28T08:43:58;-0.60;99.90
4399;DHT22;2213;49.720;7.296;2023-02-28T08:46:28;-0.50;99.90
4399;DHT22;2213;49.720;7.296;2023-02-28T08:48:58;-0.40;99.90
4399;DHT22;2213;49.720;7.296;2023-02-28T08:51:29;-0.30;99.90
4399;DHT22;2213;49.720;7.296;2023-02-28T08:54:00;-0.30;99.90
4399;DHT22;2213;49.720;7.296;2023-02-28T08:56:30;-0.30;99.90
4399;DHT22;2213;49.720;7.296;2023-02-28T08:59:01;-0.30;99.90
4399;DHT22;2213;49.720;7.296;2023-02-28T09:01:31;-0.20;99.90
4399;DHT22;2213;49.720;7.296;2023-02-28T09:04:00;-0.10;99.90
4399;DHT22;2213;49.720;7.296;2023-02-28T09:06:30;0.00;99.90
4399;DHT22;2213;49.720;7.296;2023-02-28T09:09:01;0.10;99.90
4399;DHT22;2213;49.720;7.296;2023-02-28T09:11:34;0.10;99.90
4399;DHT22;2213;49.720;7.296;2023-02-28T09:14:07;0.10;99.90
4399;DHT22;2213;49.720;7.296;2023-02-28T09:16:36;0.30;99.90
4399;DHT22;2213;49.720;7.296;2023-02-28T09:19:06;0.20;99.80
4399;DHT22;2213;49.720;7.296;2023-02-28T09:21:38;0.20;99.70
4399;DHT22;2213;49.720;7.296;2023-02-28T09:24:08;0.30;99.60
4399;DHT22;2213;49.720;7.296;2023-02-28T09:26:41;0.30;99.70
4399;DHT22;2213;49.720;7.296;2023-02-28T09:29:31;0.40;99.50
4399;DHT22;2213;49.720;7.296;2023-02-28T09:32:01;0.40;99.50
4399;DHT22;2213;49.720;7.296;2023-02-28T09:34:33;0.40;99.50
4399;DHT22;2213;49.720;7.296;2023-02-28T09:37:04;0.50;99.10
4399;DHT22;2213;49.720;7.296;2023-02-28T09:39:34;0.40;99.10
4399;DHT22;2213;49.720;7.296;2023-02-28T09:42:04;0.50;99.10
4399;DHT22;2213;49.720;7.296;2023-02-28T09:44:38;0.50;99.10
4399;DHT22;2213;49.720;7.296;2023-02-28T09:47:14;0.60;99.20
4399;DHT22;2213;49.720;7.296;2023-02-28T09:49:50;0.70;98.60
4399;DHT22;2213;49.720;7.296;2023-02-28T09:52:23;0.70;98.60
4399;DHT22;2213;49.720;7.296;2023-02-28T09:55:00;0.80;98.90
4399;DHT22;2213;49.720;7.296;2023-02-28T09:57:40;0.80;98.90
4399;DHT22;2213;49.720;7.296;2023-02-28T10:00:17;0.90;98.70
4399;DHT22;2213;49.720;7.296;2023-02-28T10:03:06;0.80;98.70
4399;DHT22;2213;49.720;7.296;2023-02-28T10:05:51;0.90;98.70
4399;DHT22;2213;49.720;7.296;2023-02-28T10:08:29;0.90;98.40
4399;DHT22;2213;49.720;7.296;2023-02-28T10:11:07;1.00;98.50
4399;DHT22;2213;49.720;7.296;2023-02-28T10:13:48;1.10;98.50
4399;DHT22;2213;49.720;7.296;2023-02-28T10:16:27;1.10;98.40
4399;DHT22;2213;49.720;7.296;2023-02-28T10:19:04;1.10;98.40
4399;DHT22;2213;49.720;7.296;2023-02-28T10:21:43;1.10;98.30
4399;DHT22;2213;49.720;7.296;2023-02-28T10:24:21;1.20;98.20
4399;DHT22;2213;49.720;7.296;2023-02-28T10:27:00;1.20;97.90
4399;DHT22;2213;49.720;7.296;2023-02-28T10:29:42;1.30;98.00
4399;DHT22;2213;49.720;7.296;2023-02-28T10:32:17;1.20;98.20
4399;DHT22;2213;49.720;7.296;2023-02-28T10:34:51;1.30;98.30
4399;DHT22;2213;49.720;7.296;2023-02-28T10:37:24;1.30;98.10
4399;DHT22;2213;49.720;7.296;2023-02-28T10:39:55;1.30;98.10
4399;DHT22;2213;49.720;7.296;2023-02-28T10:42:27;1.40;97.70
4399;DHT22;2213;49.720;7.296;2023-02-28T10:45:07;1.50;97.70
4399;DHT22;2213;49.720;7.296;2023-02-28T10:47:52;1.50;97.20
4399;DHT22;2213;49.720;7.296;2023-02-28T10:50:29;1.60;97.30
4399;DHT22;2213;49.720;7.296;2023-02-28T10:53:30;1.60;97.10
4399;DHT22;2213;49.720;7.296;2023-02-28T10:56:23;1.60;96.80
4399;DHT22;2213;49.720;7.296;2023-02-28T10:58:55;1.60;97.00
4399;DHT22;2213;49.720;7.296;2023-02-28T11:01:37;1.90;96.80
4399;DHT22;2213;49.720;7.296;2023-02-28T11:04:23;1.80;96.70
4399;DHT22;2213;49.720;7.296;2023-02-28T11:07:05;1.70;97.00
4399;DHT22;2213;49.720;7.296;2023-02-28T11:09:37;1.80;97.00
4399;DHT22;2213;49.720;7.296;2023-02-28T11:12:20;1.80;96.30
4399;DHT22;2213;49.720;7.296;2023-02-28T11:14:55;1.90;95.50
4399;DHT22;2213;49.720;7.296;2023-02-28T11:17:28;1.90;94.60
4399;DHT22;2213;49.720;7.296;2023-02-28T11:20:04;1.90;94.70
4399;DHT22;2213;49.720;7.296;2023-02-28T11:22:38;1.80;94.50
4399;DHT22;2213;49.720;7.296;2023-02-28T11:25:21;1.80;94.70
4399;DHT22;2213;49.720;7.296;2023-02-28T11:27:56;1.90;94.60
4399;DHT22;2213;49.720;7.296;2023-02-28T11:30:34;2.00;95.10
4399;DHT22;2213;49.720;7.296;2023-02-28T11:33:27;2.00;95.00
4399;DHT22;2213;49.720;7.296;2023-02-28T11:36:01;2.10;94.70
4399;DHT22;2213;49.720;7.296;2023-02-28T11:38:38;2.10;94.60
4399;DHT22;2213;49.720;7.296;2023-02-28T11:41:35;2.10;94.60
4399;DHT22;2213;49.720;7.296;2023-02-28T11:44:28;2.20;94.30
4399;DHT22;2213;49.720;7.296;2023-02-28T11:47:15;2.20;94.50
4399;DHT22;2213;49.720;7.296;2023-02-28T11:49:59;2.20;94.30
4399;DHT22;2213;49.720;7.296;2023-02-28T11:52:51;2.20;94.50
4399;DHT22;2213;49.720;7.296;2023-02-28T11:55:26;2.20;94.40
4399;DHT22;2213;49.720;7.296;2023-02-28T11:58:16;2.10;94.50
4399;DHT22;2213;49.720;7.296;2023-02-28T12:01:32;2.20;94.60
4399;DHT22;2213;49.720;7.296;2023-02-28T12:04:35;2.20;94.10
4399;DHT22;2213;49.720;7.296;2023-02-28T12:07:16;2.30;94.20
4399;DHT22;2213;49.720;7.296;2023-02-28T12:10:02;2.30;94.10
4399;DHT22;2213;49.720;7.296;2023-02-28T12:12:44;2.20;93.70
4399;DHT22;2213;49.720;7.296;2023-02-28T12:15:33;2.40;93.80
4399;DHT22;2213;49.720;7.296;2023-02-28T12:18:21;2.40;93.90
4399;DHT22;2213;49.720;7.296;2023-02-28T12:21:04;2.40;93.90
4399;DHT22;2213;49.720;7.296;2023-02-28T12:23:55;2.40;93.90
4399;DHT22;2213;49.720;7.296;2023-02-28T12:26:38;2.30;94.00
4399;DHT22;2213;49.720;7.296;2023-02-28T12:29:14;2.30;94.00
4399;DHT22;2213;49.720;7.296;2023-02-28T12:31:54;2.30;94.10
4399;DHT22;2213;49.720;7.296;2023-02-28T12:34:31;2.40;94.30
4399;DHT22;2213;49.720;7.296;2023-02-28T12:37:09;2.30;94.10
4399;DHT22;2213;49.720;7.296;2023-02-28T12:39:45;2.40;94.20
4399;DHT22;2213;49.720;7.296;2023-02-28T12:42:26;2.50;94.40
4399;DHT22;2213;49.720;7.296;2023-02-28T12:45:01;2.40;94.30
4399;DHT22;2213;49.720;7.296;2023-02-28T12:47:38;2.40;94.20
4399;DHT22;2213;49.720;7.296;2023-02-28T12:50:11;2.60;94.40
4399;DHT22;2213;49.720;7.296;2023-02-28T12:52:48;2.60;94.40
4399;DHT22;2213;49.720;7.296;2023-02-28T12:55:33;2.70;94.10
4399;DHT22;2213;49.720;7.296;2023-02-28T12:58:14;2.70;94.10
4399;DHT22;2213;49.720;7.296;2023-02-28T13:01:13;2.70;94.10
4399;DHT22;2213;49.720;7.296;2023-02-28T13:04:27;2.70;94.10
4399;DHT22;2213;49.720;7.296;2023-02-28T13:10:39;2.90;93.90
4399;DHT22;2213;49.720;7.296;2023-02-28T13:13:20;3.10;93.40
4399;DHT22;2213;49.720;7.296;2023-02-28T13:15:59;3.00;93.60
4399;DHT22;2213;49.720;7.296;2023-02-28T13:18:35;3.00;93.20
4399;DHT22;2213;49.720;7.296;2023-02-28T13:21:08;3.10;93.30
4399;DHT22;2213;49.720;7.296;2023-02-28T13:24:01;3.10;93.40
4399;DHT22;2213;49.720;7.296;2023-02-28T13:27:11;3.20;93.30
4399;DHT22;2213;49.720;7.296;2023-02-28T13:29:53;3.10;93.50
4399;DHT22;2213;49.720;7.296;2023-02-28T13:32:33;3.00;93.10
4399;DHT22;2213;49.720;7.296;2023-02-28T13:35:15;3.10;93.20
4399;DHT22;2213;49.720;7.296;2023-02-28T13:38:22;3.10;93.20
4399;DHT22;2213;49.720;7.296;2023-02-28T13:44:17;3.10;92.70
4399;DHT22;2213;49.720;7.296;2023-02-28T13:47:27;3.20;92.90
4399;DHT22;2213;49.720;7.296;2023-02-28T13:50:33;3.30;92.70
4399;DHT22;2213;49.720;7.296;2023-02-28T13:53:31;3.30;92.90
4399;DHT22;2213;49.720;7.296;2023-02-28T13:56:30;3.40;92.90
4399;DHT22;2213;49.720;7.296;2023-02-28T13:59:19;3.40;93.00
4399;DHT22;2213;49.720;7.296;2023-02-28T14:02:14;3.40;92.90
4399;DHT22;2213;49.720;7.296;2023-02-28T14:05:06;3.50;92.60
4399;DHT22;2213;49.720;7.296;2023-02-28T14:07:46;3.40;92.60
4399;DHT22;2213;49.720;7.296;2023-02-28T14:10:27;3.50;92.60
4399;DHT22;2213;49.720;7.296;2023-02-28T14:13:11;3.50;92.50
4399;DHT22;2213;49.720;7.296;2023-02-28T14:16:10;3.50;92.70
4399;DHT22;2213;49.720;7.296;2023-02-28T14:18:50;3.60;92.40
4399;DHT22;2213;49.720;7.296;2023-02-28T14:21:28;3.60;92.60
4399;DHT22;2213;49.720;7.296;2023-02-28T14:24:29;4.00;92.50
4399;DHT22;2213;49.720;7.296;2023-02-28T14:27:37;4.20;92.20
4399;DHT22;2213;49.720;7.296;2023-02-28T14:30:29;4.80;92.00
4399;DHT22;2213;49.720;7.296;2023-02-28T14:33:40;5.30;91.20
4399;DHT22;2213;49.720;7.296;2023-02-28T14:36:21;5.50;90.30
4399;DHT22;2213;49.720;7.296;2023-02-28T14:38:57;5.40;90.10
4399;DHT22;2213;49.720;7.296;2023-02-28T14:41:32;5.30;90.40
4399;DHT22;2213;49.720;7.296;2023-02-28T14:44:15;5.20;90.50
4399;DHT22;2213;49.720;7.296;2023-02-28T14:46:49;5.10;90.60
4399;DHT22;2213;49.720;7.296;2023-02-28T14:49:26;5.00;90.30
4399;DHT22;2213;49.720;7.296;2023-02-28T14:52:07;5.00;90.90
4399;DHT22;2213;49.720;7.296;2023-02-28T14:54:44;4.90;90.90
4399;DHT22;2213;49.720;7.296;2023-02-28T14:57:22;4.90;91.20
4399;DHT22;2213;49.720;7.296;2023-02-28T15:00:01;4.80;90.80
4399;DHT22;2213;49.720;7.296;2023-02-28T15:02:38;4.80;90.80
4399;DHT22;2213;49.720;7.296;2023-02-28T15:05:24;4.80;91.30
4399;DHT22;2213;49.720;7.296;2023-02-28T15:08:03;4.80;90.80
4399;DHT22;2213;49.720;7.296;2023-02-28T15:10:36;4.60;90.40
4399;DHT22;2213;49.720;7.296;2023-02-28T15:13:12;4.50;90.60
4399;DHT22;2213;49.720;7.296;2023-02-28T15:15:45;4.50;91.00
4399;DHT22;2213;49.720;7.296;2023-02-28T15:18:42;4.50;91.30
4399;DHT22;2213;49.720;7.296;2023-02-28T15:21:18;4.60;90.90
4399;DHT22;2213;49.720;7.296;2023-02-28T15:23:51;4.60;90.90
4399;DHT22;2213;49.720;7.296;2023-02-28T15:26:26;4.60;91.00
4399;DHT22;2213;49.720;7.296;2023-02-28T15:29:00;4.60;90.90
4399;DHT22;2213;49.720;7.296;2023-02-28T15:31:38;4.70;91.00
4399;DHT22;2213;49.720;7.296;2023-02-28T15:34:27;4.70;91.00
4399;DHT22;2213;49.720;7.296;2023-02-28T15:37:37;4.50;90.60
4399;DHT22;2213;49.720;7.296;2023-02-28T15:40:17;4.70;90.70
4399;DHT22;2213;49.720;7.296;2023-02-28T15:43:00;4.60;90.80
4399;DHT22;2213;49.720;7.296;2023-02-28T15:45:36;4.70;90.80
4399;DHT22;2213;49.720;7.296;2023-02-28T15:48:19;4.70;90.70
4399;DHT22;2213;49.720;7.296;2023-02-28T15:50:53;4.60;90.50
4399;DHT22;2213;49.720;7.296;2023-02-28T15:53:28;4.60;90.70
4399;DHT22;2213;49.720;7.296;2023-02-28T15:56:02;4.70;90.70
4399;DHT22;2213;49.720;7.296;2023-02-28T15:58:35;4.60;90.90
4399;DHT22;2213;49.720;7.296;2023-02-28T16:01:17;4.60;90.60
4399;DHT22;2213;49.720;7.296;2023-02-28T16:03:51;4.60;90.70
4399;DHT22;2213;49.720;7.296;2023-02-28T16:06:32;4.40;90.60
4399;DHT22;2213;49.720;7.296;2023-02-28T16:09:12;4.30;90.90
4399;DHT22;2213;49.720;7.296;2023-02-28T16:11:45;4.20;90.90
4399;DHT22;2213;49.720;7.296;2023-02-28T16:14:19;4.10;91.10
4399;DHT22;2213;49.720;7.296;2023-02-28T16:16:54;4.10;91.50
4399;DHT22;2213;49.720;7.296;2023-02-28T16:19:24;4.00;91.50
4399;DHT22;2213;49.720;7.296;2023-02-28T16:21:54;3.90;92.20
4399;DHT22;2213;49.720;7.296;2023-02-28T16:24:25;4.00;92.10
4399;DHT22;2213;49.720;7.296;2023-02-28T16:26:55;3.90;91.90
4399;DHT22;2213;49.720;7.296;2023-02-28T16:29:30;3.90;91.70
4399;DHT22;2213;49.720;7.296;2023-02-28T16:32:01;3.90;91.80
4399;DHT22;2213;49.720;7.296;2023-02-28T16:34:33;3.70;91.90
4399;DHT22;2213;49.720;7.296;2023-02-28T16:37:04;3.70;92.30
4399;DHT22;2213;49.720;7.296;2023-02-28T16:39:39;3.70;92.20
4399;DHT22;2213;49.720;7.296;2023-02-28T16:42:15;3.80;92.20
4399;DHT22;2213;49.720;7.296;2023-02-28T16:44:52;3.70;92.30
4399;DHT22;2213;49.720;7.296;2023-02-28T16:47:21;3.70;92.30
4399;DHT22;2213;49.720;7.296;2023-02-28T16:49:51;3.60;92.40
4399;DHT22;2213;49.720;7.296;2023-02-28T16:52:21;3.70;92.20
4399;DHT22;2213;49.720;7.296;2023-02-28T16:54:51;3.70;92.10
4399;DHT22;2213;49.720;7.296;2023-02-28T16:57:22;3.60;92.10
4399;DHT22;2213;49.720;7.296;2023-02-28T16:59:52;3.50;92.60
4399;DHT22;2213;49.720;7.296;2023-02-28T17:02:23;3.50;92.40
4399;DHT22;2213;49.720;7.296;2023-02-28T17:04:53;3.40;92.40
4399;DHT22;2213;49.720;7.296;2023-02-28T17:07:23;3.40;92.80
4399;DHT22;2213;49.720;7.296;2023-02-28T17:09:54;3.30;92.50
4399;DHT22;2213;49.720;7.296;2023-02-28T17:12:24;3.30;92.50
4399;DHT22;2213;49.720;7.296;2023-02-28T17:14:55;3.30;92.40
4399;DHT22;2213;49.720;7.296;2023-02-28T17:17:29;3.30;92.90
4399;DHT22;2213;49.720;7.296;2023-02-28T17:19:59;3.30;93.20
4399;DHT22;2213;49.720;7.296;2023-02-28T17:22:30;3.20;93.10
4399;DHT22;2213;49.720;7.296;2023-02-28T17:25:01;3.10;93.30